sensor_id;sensor_type;location;lat;lon;timestamp;temperature;humidity
56336;DHT22;42241;53.510;10.170;2023-02-10T00:01:21;3.50;99.90
56336;DHT22;42241;53.510;10.170;2023-02-10T00:03:49;3.60;99.90
56336;DHT22;42241;53.510;10.170;2023-02-10T00:06:17;3.60;99.90
56336;DHT22;42241;53.510;10.170;2023-02-10T00:08:46;3.50;99.90
56336;DHT22;42241;53.510;10.170;2023-02-10T00:11:12;3.60;99.90
56336;DHT22;42241;53.510;10.170;2023-02-10T00:13:38;3.60;99.90
56336;DHT22;42241;53.510;10.170;2023-02-10T00:16:07;3.60;99.90
56336;DHT22;42241;53.510;10.170;2023-02-10T00:18:35;3.60;99.90
56336;DHT22;42241;53.510;10.170;2023-02-10T00:21:13;3.60;99.90
56336;DHT22;42241;53.510;10.170;2023-02-10T00:23:39;3.60;99.90
56336;DHT22;42241;53.510;10.170;2023-02-10T00:26:06;3.60;99.90
56336;DHT22;42241;53.510;10.170;2023-02-10T00:28:35;3.70;99.90
56336;DHT22;42241;53.510;10.170;2023-02-10T00:31:07;3.70;99.90
56336;DHT22;42241;53.510;10.170;2023-02-10T00:33:34;3.70;99.90
56336;DHT22;42241;53.510;10.170;2023-02-10T00:36:05;3.70;99.90
56336;DHT22;42241;53.510;10.170;2023-02-10T00:38:34;3.70;99.90
56336;DHT22;42241;53.510;10.170;2023-02-10T00:41:03;3.70;99.90
56336;DHT22;42241;53.510;10.170;2023-02-10T00:43:32;3.80;99.90
56336;DHT22;42241;53.510;10.170;2023-02-10T00:46:00;3.80;99.90
56336;DHT22;42241;53.510;10.170;2023-02-10T00:48:26;3.80;99.90
56336;DHT22;42241;53.510;10.170;2023-02-10T00:50:56;3.80;99.90
56336;DHT22;42241;53.510;10.170;2023-02-10T00:53:21;3.80;99.90
56336;DHT22;42241;53.510;10.170;2023-02-10T00:55:51;3.80;99.90
56336;DHT22;42241;53.510;10.170;2023-02-10T00:58:17;3.80;99.90
56336;DHT22;42241;53.510;10.170;2023-02-10T01:00:47;3.80;99.90
56336;DHT22;42241;53.510;10.170;2023-02-10T01:03:13;3.80;99.90
56336;DHT22;42241;53.510;10.170;2023-02-10T01:05:41;3.90;99.90
56336;DHT22;42241;53.510;10.170;2023-02-10T01:08:06;3.80;99.90
56336;DHT22;42241;53.510;10.170;2023-02-10T01:10:33;3.80;99.90
56336;DHT22;42241;53.510;10.170;2023-02-10T01:13:03;3.80;99.90
56336;DHT22;42241;53.510;10.170;2023-02-10T01:15:28;3.80;99.90
56336;DHT22;42241;53.510;10.170;2023-02-10T01:17:57;3.80;99.90
56336;DHT22;42241;53.510;10.170;2023-02-10T01:20:22;3.80;99.90
56336;DHT22;42241;53.510;10.170;2023-02-10T01:22:48;3.80;99.90
56336;DHT22;42241;53.510;10.170;2023-02-10T01:25:14;3.80;99.90
56336;DHT22;42241;53.510;10.170;2023-02-10T01:27:39;3.80;99.90
56336;DHT22;42241;53.510;10.170;2023-02-10T01:30:08;3.80;99.90
56336;DHT22;42241;53.510;10.170;2023-02-10T01:32:33;3.90;99.90
56336;DHT22;42241;53.510;10.170;2023-02-10T01:34:59;3.90;99.90
56336;DHT22;42241;53.510;10.170;2023-02-10T01:37:25;3.90;99.90
56336;DHT22;42241;53.510;10.170;2023-02-10T01:39:50;4.00;99.90
56336;DHT22;42241;53.510;10.170;2023-02-10T01:42:16;4.00;99.90
56336;DHT22;42241;53.510;10.170;2023-02-10T01:47:09;4.10;99.90
56336;DHT22;42241;53.510;10.170;2023-02-10T01:49:39;4.10;99.90
56336;DHT22;42241;53.510;10.170;2023-02-10T01:52:06;4.10;99.90
56336;DHT22;42241;53.510;10.170;2023-02-10T01:54:37;4.10;99.90
56336;DHT22;42241;53.510;10.170;2023-02-10T01:57:03;4.10;99.90
56336;DHT22;42241;53.510;10.170;2023-02-10T01:59:30;4.10;99.90
56336;DHT22;42241;53.510;10.170;2023-02-10T02:01:57;4.10;99.90
56336;DHT22;42241;53.510;10.170;2023-02-10T02:04:27;4.00;99.90
56336;DHT22;42241;53.510;10.170;2023-02-10T02:06:53;4.10;99.90
56336;DHT22;42241;53.510;10.170;2023-02-10T02:09:21;4.00;99.90
56336;DHT22;42241;53.510;10.170;2023-02-10T02:12:08;3.90;99.90
56336;DHT22;42241;53.510;10.170;2023-02-10T02:14:44;3.90;99.90
56336;DHT22;42241;53.510;10.170;2023-02-10T02:19:48;3.90;99.90
56336;DHT22;42241;53.510;10.170;2023-02-10T02:22:48;3.90;99.90
56336;DHT22;42241;53.510;10.170;2023-02-10T02:25:31;3.90;99.90
56336;DHT22;42241;53.510;10.170;2023-02-10T02:33:33;3.80;99.90
56336;DHT22;42241;53.510;10.170;2023-02-10T02:36:07;3.70;99.90
56336;DHT22;42241;53.510;10.170;2023-02-10T02:38:38;3.60;99.90
56336;DHT22;42241;53.510;10.170;2023-02-10T02:41:05;3.60;99.90
56336;DHT22;42241;53.510;10.170;2023-02-10T02:43:31;3.60;99.90
56336;DHT22;42241;53.510;10.170;2023-02-10T02:53:53;3.50;99.90
56336;DHT22;42241;53.510;10.170;2023-02-10T03:01:42;3.50;99.90
56336;DHT22;42241;53.510;10.170;2023-02-10T03:04:06;3.50;99.90
56336;DHT22;42241;53.510;10.170;2023-02-10T03:06:34;3.60;99.90
56336;DHT22;42241;53.510;10.170;2023-02-10T03:09:00;3.60;99.90
56336;DHT22;42241;53.510;10.170;2023-02-10T03:11:29;3.50;99.90
56336;DHT22;42241;53.510;10.170;2023-02-10T03:13:56;3.50;99.90
56336;DHT22;42241;53.510;10.170;2023-02-10T03:16:24;3.50;99.90
56336;DHT22;42241;53.510;10.170;2023-02-10T03:18:50;3.50;99.90
56336;DHT22;42241;53.510;10.170;2023-02-10T03:21:15;3.50;99.90
56336;DHT22;42241;53.510;10.170;2023-02-10T03:23:43;3.50;99.90
56336;DHT22;42241;53.510;10.170;2023-02-10T03:26:09;3.50;99.90
56336;DHT22;42241;53.510;10.170;2023-02-10T03:28:34;3.50;99.90
56336;DHT22;42241;53.510;10.170;2023-02-10T03:31:03;3.50;99.90
56336;DHT22;42241;53.510;10.170;2023-02-10T03:33:32;3.50;99.90
56336;DHT22;42241;53.510;10.170;2023-02-10T03:35:57;3.50;99.90
56336;DHT22;42241;53.510;10.170;2023-02-10T03:38:26;3.40;99.90
56336;DHT22;42241;53.510;10.170;2023-02-10T03:40:51;3.30;99.90
56336;DHT22;42241;53.510;10.170;2023-02-10T03:43:18;3.30;99.90
56336;DHT22;42241;53.510;10.170;2023-02-10T03:45:43;3.30;99.90
56336;DHT22;42241;53.510;10.170;2023-02-10T03:48:09;3.30;99.90
56336;DHT22;42241;53.510;10.170;2023-02-10T03:50:35;3.20;99.90
56336;DHT22;42241;53.510;10.170;2023-02-10T03:53:00;3.20;99.90
56336;DHT22;42241;53.510;10.170;2023-02-10T03:55:26;3.10;99.90
56336;DHT22;42241;53.510;10.170;2023-02-10T03:57:54;3.00;99.90
56336;DHT22;42241;53.510;10.170;2023-02-10T04:00:19;3.00;99.90
56336;DHT22;42241;53.510;10.170;2023-02-10T04:02:45;3.00;99.90
56336;DHT22;42241;53.510;10.170;2023-02-10T04:05:13;2.90;99.90
56336;DHT22;42241;53.510;10.170;2023-02-10T04:07:41;2.90;99.90
56336;DHT22;42241;53.510;10.170;2023-02-10T04:10:09;2.90;99.90
56336;DHT22;42241;53.510;10.170;2023-02-10T04:12:37;2.90;99.90
56336;DHT22;42241;53.510;10.170;2023-02-10T04:15:03;2.90;99.90
56336;DHT22;42241;53.510;10.170;2023-02-10T04:17:29;2.90;99.90
56336;DHT22;42241;53.510;10.170;2023-02-10T04:19:57;2.90;99.90
56336;DHT22;42241;53.510;10.170;2023-02-10T04:22:25;3.00;99.90
56336;DHT22;42241;53.510;10.170;2023-02-10T04:24:52;3.10;99.90
56336;DHT22;42241;53.510;10.170;2023-02-10T04:27:20;3.10;99.90
56336;DHT22;42241;53.510;10.170;2023-02-10T04:29:46;3.10;99.90
56336;DHT22;42241;53.510;10.170;2023-02-10T04:32:11;3.20;99.90
56336;DHT22;42241;53.510;10.170;2023-02-10T04:34:38;3.20;99.90
56336;DHT22;42241;53.510;10.170;2023-02-10T04:37:05;3.30;99.90
56336;DHT22;42241;53.510;10.170;2023-02-10T04:39:31;3.30;99.90
56336;DHT22;42241;53.510;10.170;2023-02-10T04:41:59;3.30;99.90
56336;DHT22;42241;53.510;10.170;2023-02-10T04:44:24;3.30;99.90
56336;DHT22;42241;53.510;10.170;2023-02-10T04:46:50;3.40;99.90
56336;DHT22;42241;53.510;10.170;2023-02-10T04:49:20;3.40;99.90
56336;DHT22;42241;53.510;10.170;2023-02-10T04:51:46;3.40;99.90
56336;DHT22;42241;53.510;10.170;2023-02-10T04:54:11;3.40;99.90
56336;DHT22;42241;53.510;10.170;2023-02-10T04:56:37;3.50;99.90
56336;DHT22;42241;53.510;10.170;2023-02-10T04:59:05;3.40;99.90
56336;DHT22;42241;53.510;10.170;2023-02-10T05:01:30;3.50;99.90
56336;DHT22;42241;53.510;10.170;2023-02-10T05:03:56;3.50;99.90
56336;DHT22;42241;53.510;10.170;2023-02-10T05:06:21;3.40;99.90
56336;DHT22;42241;53.510;10.170;2023-02-10T05:08:47;3.40;99.90
56336;DHT22;42241;53.510;10.170;2023-02-10T05:11:14;3.40;99.90
56336;DHT22;42241;53.510;10.170;2023-02-10T05:13:45;3.40;99.90
56336;DHT22;42241;53.510;10.170;2023-02-10T05:16:13;3.30;99.90
56336;DHT22;42241;53.510;10.170;2023-02-10T05:18:39;3.30;99.90
56336;DHT22;42241;53.510;10.170;2023-02-10T05:21:07;3.30;99.90
56336;DHT22;42241;53.510;10.170;2023-02-10T05:23:37;3.30;99.90
56336;DHT22;42241;53.510;10.170;2023-02-10T05:26:02;3.20;99.90
56336;DHT22;42241;53.510;10.170;2023-02-10T05:28:28;3.20;99.90
56336;DHT22;42241;53.510;10.170;2023-02-10T05:30:53;3.10;99.90
56336;DHT22;42241;53.510;10.170;2023-02-10T05:33:22;3.10;99.90
56336;DHT22;42241;53.510;10.170;2023-02-10T05:35:47;3.20;99.90
56336;DHT22;42241;53.510;10.170;2023-02-10T05:38:14;3.30;99.90
56336;DHT22;42241;53.510;10.170;2023-02-10T05:40:42;3.30;99.90
56336;DHT22;42241;53.510;10.170;2023-02-10T05:43:07;3.40;99.90
56336;DHT22;42241;53.510;10.170;2023-02-10T05:45:35;3.40;99.90
56336;DHT22;42241;53.510;10.170;2023-02-10T05:48:01;3.50;99.90
56336;DHT22;42241;53.510;10.170;2023-02-10T05:50:27;3.50;99.90
56336;DHT22;42241;53.510;10.170;2023-02-10T05:52:52;3.60;99.90
56336;DHT22;42241;53.510;10.170;2023-02-10T05:55:19;3.50;99.90
56336;DHT22;42241;53.510;10.170;2023-02-10T05:57:44;3.60;99.90
56336;DHT22;42241;53.510;10.170;2023-02-10T06:00:14;3.60;99.90
56336;DHT22;42241;53.510;10.170;2023-02-10T06:02:42;3.50;99.90
56336;DHT22;42241;53.510;10.170;2023-02-10T06:05:11;3.60;99.90
56336;DHT22;42241;53.510;10.170;2023-02-10T06:07:36;3.50;99.90
56336;DHT22;42241;53.510;10.170;2023-02-10T06:10:02;3.50;99.90
56336;DHT22;42241;53.510;10.170;2023-02-10T06:12:27;3.40;99.90
56336;DHT22;42241;53.510;10.170;2023-02-10T06:14:53;3.40;99.90
56336;DHT22;42241;53.510;10.170;2023-02-10T06:17:21;3.40;99.90
56336;DHT22;42241;53.510;10.170;2023-02-10T06:19:46;3.40;99.90
56336;DHT22;42241;53.510;10.170;2023-02-10T06:22:12;3.30;99.90
56336;DHT22;42241;53.510;10.170;2023-02-10T06:24:37;3.40;99.90
56336;DHT22;42241;53.510;10.170;2023-02-10T06:27:04;3.40;99.90
56336;DHT22;42241;53.510;10.170;2023-02-10T06:29:29;3.50;99.90
56336;DHT22;42241;53.510;10.170;2023-02-10T06:31:57;3.50;99.90
56336;DHT22;42241;53.510;10.170;2023-02-10T06:34:22;3.40;99.90
56336;DHT22;42241;53.510;10.170;2023-02-10T06:36:48;3.50;99.90
56336;DHT22;42241;53.510;10.170;2023-02-10T06:39:13;3.50;99.90
56336;DHT22;42241;53.510;10.170;2023-02-10T06:41:41;3.50;99.90
56336;DHT22;42241;53.510;10.170;2023-02-10T06:44:07;3.50;99.90
56336;DHT22;42241;53.510;10.170;2023-02-10T06:46:35;3.50;99.90
56336;DHT22;42241;53.510;10.170;2023-02-10T06:49:01;3.50;99.90
56336;DHT22;42241;53.510;10.170;2023-02-10T06:51:27;3.50;99.90
56336;DHT22;42241;53.510;10.170;2023-02-10T06:53:55;3.50;99.90
56336;DHT22;42241;53.510;10.170;2023-02-10T06:56:23;3.60;99.90
56336;DHT22;42241;53.510;10.170;2023-02-10T06:58:51;3.60;99.90
56336;DHT22;42241;53.510;10.170;2023-02-10T07:01:17;3.70;99.90
56336;DHT22;42241;53.510;10.170;2023-02-10T07:03:42;3.60;99.90
56336;DHT22;42241;53.510;10.170;2023-02-10T07:06:08;3.60;99.90
56336;DHT22;42241;53.510;10.170;2023-02-10T07:08:36;3.60;99.90
56336;DHT22;42241;53.510;10.170;2023-02-10T07:11:01;3.60;99.90
56336;DHT22;42241;53.510;10.170;2023-02-10T07:13:27;3.70;99.90
56336;DHT22;42241;53.510;10.170;2023-02-10T07:15:53;3.60;99.90
56336;DHT22;42241;53.510;10.170;2023-02-10T07:18:18;3.60;99.90
56336;DHT22;42241;53.510;10.170;2023-02-10T07:20:46;3.70;99.90
56336;DHT22;42241;53.510;10.170;2023-02-10T07:23:11;3.70;99.90
56336;DHT22;42241;53.510;10.170;2023-02-10T07:25:39;3.60;99.90
56336;DHT22;42241;53.510;10.170;2023-02-10T07:28:07;3.70;99.90
56336;DHT22;42241;53.510;10.170;2023-02-10T07:30:37;3.70;99.90
56336;DHT22;42241;53.510;10.170;2023-02-10T07:33:03;3.80;99.90
56336;DHT22;42241;53.510;10.170;2023-02-10T07:35:29;3.80;99.90
56336;DHT22;42241;53.510;10.170;2023-02-10T07:37:54;3.80;99.90
56336;DHT22;42241;53.510;10.170;2023-02-10T07:40:20;3.80;99.90
56336;DHT22;42241;53.510;10.170;2023-02-10T07:42:50;3.90;99.90
56336;DHT22;42241;53.510;10.170;2023-02-10T07:45:16;3.90;99.90
56336;DHT22;42241;53.510;10.170;2023-02-10T07:47:41;3.90;99.90
56336;DHT22;42241;53.510;10.170;2023-02-10T07:50:07;3.80;99.90
56336;DHT22;42241;53.510;10.170;2023-02-10T07:52:32;3.90;99.90
56336;DHT22;42241;53.510;10.170;2023-02-10T07:55:00;3.90;99.90
56336;DHT22;42241;53.510;10.170;2023-02-10T07:57:28;4.00;99.90
56336;DHT22;42241;53.510;10.170;2023-02-10T07:59:53;4.00;99.90
56336;DHT22;42241;53.510;10.170;2023-02-10T08:02:21;4.00;99.90
56336;DHT22;42241;53.510;10.170;2023-02-10T08:04:47;4.00;99.90
56336;DHT22;42241;53.510;10.170;2023-02-10T08:07:15;4.00;99.90
56336;DHT22;42241;53.510;10.170;2023-02-10T08:09:42;4.00;99.90
56336;DHT22;42241;53.510;10.170;2023-02-10T08:12:08;4.00;99.90
56336;DHT22;42241;53.510;10.170;2023-02-10T08:14:36;4.00;99.90
56336;DHT22;42241;53.510;10.170;2023-02-10T08:17:04;4.10;99.90
56336;DHT22;42241;53.510;10.170;2023-02-10T08:19:30;4.10;99.90
56336;DHT22;42241;53.510;10.170;2023-02-10T08:22:01;4.10;99.90
56336;DHT22;42241;53.510;10.170;2023-02-10T08:24:26;4.10;99.90
56336;DHT22;42241;53.510;10.170;2023-02-10T08:26:54;4.20;99.90
56336;DHT22;42241;53.510;10.170;2023-02-10T08:29:20;4.40;99.90
56336;DHT22;42241;53.510;10.170;2023-02-10T08:31:48;4.50;99.90
56336;DHT22;42241;53.510;10.170;2023-02-10T08:34:17;4.50;99.90
56336;DHT22;42241;53.510;10.170;2023-02-10T08:36:43;4.70;99.90
56336;DHT22;42241;53.510;10.170;2023-02-10T08:39:09;4.70;99.90
56336;DHT22;42241;53.510;10.170;2023-02-10T08:41:35;4.50;99.90
56336;DHT22;42241;53.510;10.170;2023-02-10T08:44:02;4.50;99.90
56336;DHT22;42241;53.510;10.170;2023-02-10T08:46:30;4.50;99.90
56336;DHT22;42241;53.510;10.170;2023-02-10T08:48:56;4.50;99.90
56336;DHT22;42241;53.510;10.170;2023-02-10T08:51:21;4.50;99.90
56336;DHT22;42241;53.510;10.170;2023-02-10T08:53:49;4.40;99.90
56336;DHT22;42241;53.510;10.170;2023-02-10T08:56:17;4.50;99.90
56336;DHT22;42241;53.510;10.170;2023-02-10T08:58:43;4.60;99.90
56336;DHT22;42241;53.510;10.170;2023-02-10T09:01:12;4.50;99.90
56336;DHT22;42241;53.510;10.170;2023-02-10T09:03:38;4.70;99.90
56336;DHT22;42241;53.510;10.170;2023-02-10T09:06:04;4.60;99.90
56336;DHT22;42241;53.510;10.170;2023-02-10T09:08:30;4.70;99.90
56336;DHT22;42241;53.510;10.170;2023-02-10T09:10:57;4.70;99.90
56336;DHT22;42241;53.510;10.170;2023-02-10T09:13:23;4.70;99.90
56336;DHT22;42241;53.510;10.170;2023-02-10T09:15:54;4.70;99.90
56336;DHT22;42241;53.510;10.170;2023-02-10T09:18:23;4.70;99.90
56336;DHT22;42241;53.510;10.170;2023-02-10T09:20:51;4.60;99.90
56336;DHT22;42241;53.510;10.170;2023-02-10T09:23:17;4.60;99.90
56336;DHT22;42241;53.510;10.170;2023-02-10T09:25:51;4.70;99.90
56336;DHT22;42241;53.510;10.170;2023-02-10T09:28:17;4.60;99.90
56336;DHT22;42241;53.510;10.170;2023-02-10T09:30:45;4.60;99.90
56336;DHT22;42241;53.510;10.170;2023-02-10T09:33:15;4.60;99.90
56336;DHT22;42241;53.510;10.170;2023-02-10T09:35:41;4.60;99.90
56336;DHT22;42241;53.510;10.170;2023-02-10T09:38:07;4.50;99.90
56336;DHT22;42241;53.510;10.170;2023-02-10T09:40:34;4.60;99.90
56336;DHT22;42241;53.510;10.170;2023-02-10T09:45:55;4.70;99.90
56336;DHT22;42241;53.510;10.170;2023-02-10T09:48:29;4.60;99.90
56336;DHT22;42241;53.510;10.170;2023-02-10T09:51:11;4.60;99.90
56336;DHT22;42241;53.510;10.170;2023-02-10T09:53:42;4.60;99.90
56336;DHT22;42241;53.510;10.170;2023-02-10T09:56:09;4.50;99.90
56336;DHT22;42241;53.510;10.170;2023-02-10T09:58:38;4.70;99.90
56336;DHT22;42241;53.510;10.170;2023-02-10T10:01:24;4.60;99.90
56336;DHT22;42241;53.510;10.170;2023-02-10T10:06:31;4.50;99.90
56336;DHT22;42241;53.510;10.170;2023-02-10T10:30:19;4.90;99.90
56336;DHT22;42241;53.510;10.170;2023-02-10T10:32:52;4.80;99.90
56336;DHT22;42241;53.510;10.170;2023-02-10T10:35:21;4.80;99.90
56336;DHT22;42241;53.510;10.170;2023-02-10T10:37:49;4.90;99.90
56336;DHT22;42241;53.510;10.170;2023-02-10T10:40:17;4.90;99.90
56336;DHT22;42241;53.510;10.170;2023-02-10T10:42:51;5.00;99.90
56336;DHT22;42241;53.510;10.170;2023-02-10T10:45:22;5.00;99.90
56336;DHT22;42241;53.510;10.170;2023-02-10T10:50:33;5.20;99.90
56336;DHT22;42241;53.510;10.170;2023-02-10T10:52:59;5.30;99.90
56336;DHT22;42241;53.510;10.170;2023-02-10T10:55:37;5.30;99.90
56336;DHT22;42241;53.510;10.170;2023-02-10T10:58:07;5.40;99.90
56336;DHT22;42241;53.510;10.170;2023-02-10T11:00:35;5.30;99.90
56336;DHT22;42241;53.510;10.170;2023-02-10T11:03:03;5.20;99.90
56336;DHT22;42241;53.510;10.170;2023-02-10T11:05:33;5.20;99.90
56336;DHT22;42241;53.510;10.170;2023-02-10T11:08:05;5.30;99.90
56336;DHT22;42241;53.510;10.170;2023-02-10T11:10:35;5.30;99.90
56336;DHT22;42241;53.510;10.170;2023-02-10T11:13:04;5.40;99.90
56336;DHT22;42241;53.510;10.170;2023-02-10T11:15:32;5.60;99.90
56336;DHT22;42241;53.510;10.170;2023-02-10T11:18:01;5.50;99.90
56336;DHT22;42241;53.510;10.170;2023-02-10T11:20:31;5.60;99.90
56336;DHT22;42241;53.510;10.170;2023-02-10T11:25:56;6.00;99.90
56336;DHT22;42241;53.510;10.170;2023-02-10T11:28:26;7.90;99.90
56336;DHT22;42241;53.510;10.170;2023-02-10T11:30:56;9.30;99.90
56336;DHT22;42241;53.510;10.170;2023-02-10T11:33:24;9.70;99.90
56336;DHT22;42241;53.510;10.170;2023-02-10T11:35:56;10.00;99.90
56336;DHT22;42241;53.510;10.170;2023-02-10T11:38:24;10.70;99.90
56336;DHT22;42241;53.510;10.170;2023-02-10T11:40:55;10.70;99.90
56336;DHT22;42241;53.510;10.170;2023-02-10T11:43:29;11.60;99.90
56336;DHT22;42241;53.510;10.170;2023-02-10T11:45:58;12.10;99.90
56336;DHT22;42241;53.510;10.170;2023-02-10T11:48:25;11.30;99.90
56336;DHT22;42241;53.510;10.170;2023-02-10T11:51:00;11.50;99.90
56336;DHT22;42241;53.510;10.170;2023-02-10T11:53:29;11.00;99.90
56336;DHT22;42241;53.510;10.170;2023-02-10T11:58:41;11.10;99.90
56336;DHT22;42241;53.510;10.170;2023-02-10T12:01:33;11.10;99.90
56336;DHT22;42241;53.510;10.170;2023-02-10T12:04:03;11.90;99.90
56336;DHT22;42241;53.510;10.170;2023-02-10T12:06:41;11.80;99.90
56336;DHT22;42241;53.510;10.170;2023-02-10T12:09:30;12.30;99.90
56336;DHT22;42241;53.510;10.170;2023-02-10T12:12:16;12.30;99.90
56336;DHT22;42241;53.510;10.170;2023-02-10T12:14:54;11.10;99.90
56336;DHT22;42241;53.510;10.170;2023-02-10T12:22:42;9.60;99.90
56336;DHT22;42241;53.510;10.170;2023-02-10T12:30:33;9.00;99.90
56336;DHT22;42241;53.510;10.170;2023-02-10T12:35:52;9.00;99.90
56336;DHT22;42241;53.510;10.170;2023-02-10T12:38:26;8.70;99.90
56336;DHT22;42241;53.510;10.170;2023-02-10T12:43:31;8.40;99.90
56336;DHT22;42241;53.510;10.170;2023-02-10T12:53:25;8.90;99.90
56336;DHT22;42241;53.510;10.170;2023-02-10T12:55:56;9.10;99.90
56336;DHT22;42241;53.510;10.170;2023-02-10T12:58:36;9.10;99.90
56336;DHT22;42241;53.510;10.170;2023-02-10T13:01:19;9.10;99.90
56336;DHT22;42241;53.510;10.170;2023-02-10T13:03:47;9.10;99.90
56336;DHT22;42241;53.510;10.170;2023-02-10T13:06:33;9.00;99.90
56336;DHT22;42241;53.510;10.170;2023-02-10T13:09:43;9.10;99.90
56336;DHT22;42241;53.510;10.170;2023-02-10T13:11:56;9.10;99.90
56336;DHT22;42241;53.510;10.170;2023-02-10T13:14:26;9.40;99.90
56336;DHT22;42241;53.510;10.170;2023-02-10T13:16:55;9.70;99.90
56336;DHT22;42241;53.510;10.170;2023-02-10T13:29:57;10.40;99.90
56336;DHT22;42241;53.510;10.170;2023-02-10T13:34:54;10.10;99.90
56336;DHT22;42241;53.510;10.170;2023-02-10T13:37:34;9.50;99.90
56336;DHT22;42241;53.510;10.170;2023-02-10T13:40:05;9.50;99.90
56336;DHT22;42241;53.510;10.170;2023-02-10T13:42:38;9.60;99.90
56336;DHT22;42241;53.510;10.170;2023-02-10T13:52:47;9.10;99.90
56336;DHT22;42241;53.510;10.170;2023-02-10T13:57:39;9.00;99.90
56336;DHT22;42241;53.510;10.170;2023-02-10T14:02:41;8.70;99.90
56336;DHT22;42241;53.510;10.170;2023-02-10T14:05:31;8.50;99.90
56336;DHT22;42241;53.510;10.170;2023-02-10T14:07:59;8.30;99.90
56336;DHT22;42241;53.510;10.170;2023-02-10T14:10:28;8.20;99.90
56336;DHT22;42241;53.510;10.170;2023-02-10T14:15:35;8.10;99.90
56336;DHT22;42241;53.510;10.170;2023-02-10T14:18:04;8.20;99.90
56336;DHT22;42241;53.510;10.170;2023-02-10T14:20:36;8.20;99.90
56336;DHT22;42241;53.510;10.170;2023-02-10T14:23:05;8.20;99.90
56336;DHT22;42241;53.510;10.170;2023-02-10T14:25:33;8.40;99.90
56336;DHT22;42241;53.510;10.170;2023-02-10T14:28:02;8.10;99.90
56336;DHT22;42241;53.510;10.170;2023-02-10T14:33:12;7.90;99.90
56336;DHT22;42241;53.510;10.170;2023-02-10T14:35:47;7.80;99.90
56336;DHT22;42241;53.510;10.170;2023-02-10T14:38:26;7.70;99.90
56336;DHT22;42241;53.510;10.170;2023-02-10T14:40:53;7.70;99.90
56336;DHT22;42241;53.510;10.170;2023-02-10T14:43:20;7.60;99.90
56336;DHT22;42241;53.510;10.170;2023-02-10T14:45:46;7.60;99.90
56336;DHT22;42241;53.510;10.170;2023-02-10T14:48:12;7.50;99.90
56336;DHT22;42241;53.510;10.170;2023-02-10T14:50:39;7.60;99.90
56336;DHT22;42241;53.510;10.170;2023-02-10T14:53:16;7.50;99.90
56336;DHT22;42241;53.510;10.170;2023-02-10T14:55:43;7.40;99.90
56336;DHT22;42241;53.510;10.170;2023-02-10T14:58:16;7.30;99.90
56336;DHT22;42241;53.510;10.170;2023-02-10T15:03:22;7.10;99.90
56336;DHT22;42241;53.510;10.170;2023-02-10T15:05:49;7.20;99.90
56336;DHT22;42241;53.510;10.170;2023-02-10T15:08:25;7.20;99.90
56336;DHT22;42241;53.510;10.170;2023-02-10T15:10:54;7.20;99.90
56336;DHT22;42241;53.510;10.170;2023-02-10T15:13:28;7.10;99.90
56336;DHT22;42241;53.510;10.170;2023-02-10T15:15:55;7.10;99.90
56336;DHT22;42241;53.510;10.170;2023-02-10T15:18:28;7.10;99.90
56336;DHT22;42241;53.510;10.170;2023-02-10T15:20:59;7.20;99.90
56336;DHT22;42241;53.510;10.170;2023-02-10T15:23:25;7.10;99.90
56336;DHT22;42241;53.510;10.170;2023-02-10T15:28:30;7.00;99.90
56336;DHT22;42241;53.510;10.170;2023-02-10T15:33:35;7.00;99.90
56336;DHT22;42241;53.510;10.170;2023-02-10T15:49:47;6.80;99.90
56336;DHT22;42241;53.510;10.170;2023-02-10T15:52:15;6.80;99.90
56336;DHT22;42241;53.510;10.170;2023-02-10T15:54:41;6.80;99.90
56336;DHT22;42241;53.510;10.170;2023-02-10T15:57:11;6.80;99.90
56336;DHT22;42241;53.510;10.170;2023-02-10T15:59:42;6.80;99.90
56336;DHT22;42241;53.510;10.170;2023-02-10T16:02:15;6.80;99.90
56336;DHT22;42241;53.510;10.170;2023-02-10T16:04:40;6.80;99.90
56336;DHT22;42241;53.510;10.170;2023-02-10T16:07:09;6.70;99.90
56336;DHT22;42241;53.510;10.170;2023-02-10T16:09:40;6.80;99.90
56336;DHT22;42241;53.510;10.170;2023-02-10T16:12:05;6.70;99.90
56336;DHT22;42241;53.510;10.170;2023-02-10T16:14:35;6.70;99.90
56336;DHT22;42241;53.510;10.170;2023-02-10T16:17:03;6.70;99.90
56336;DHT22;42241;53.510;10.170;2023-02-10T16:19:32;6.60;99.90
56336;DHT22;42241;53.510;10.170;2023-02-10T16:21:58;6.60;99.90
56336;DHT22;42241;53.510;10.170;2023-02-10T16:24:25;6.60;99.90
56336;DHT22;42241;53.510;10.170;2023-02-10T16:26:51;6.60;99.90
56336;DHT22;42241;53.510;10.170;2023-02-10T16:29:21;6.60;99.90
56336;DHT22;42241;53.510;10.170;2023-02-10T16:31:47;6.60;99.90
56336;DHT22;42241;53.510;10.170;2023-02-10T16:34:14;6.50;99.90
56336;DHT22;42241;53.510;10.170;2023-02-10T16:36:40;6.50;99.90
56336;DHT22;42241;53.510;10.170;2023-02-10T16:39:09;6.50;99.90
56336;DHT22;42241;53.510;10.170;2023-02-10T16:41:36;6.50;99.90
56336;DHT22;42241;53.510;10.170;2023-02-10T16:44:01;6.50;99.90
56336;DHT22;42241;53.510;10.170;2023-02-10T16:46:27;6.40;99.90
56336;DHT22;42241;53.510;10.170;2023-02-10T16:48:52;6.40;99.90
56336;DHT22;42241;53.510;10.170;2023-02-10T16:51:18;6.40;99.90
56336;DHT22;42241;53.510;10.170;2023-02-10T16:53:43;6.40;99.90
56336;DHT22;42241;53.510;10.170;2023-02-10T16:56:14;6.40;99.90
56336;DHT22;42241;53.510;10.170;2023-02-10T16:58:42;6.40;99.90
56336;DHT22;42241;53.510;10.170;2023-02-10T17:01:08;6.30;99.90
56336;DHT22;42241;53.510;10.170;2023-02-10T17:03:36;6.30;99.90
56336;DHT22;42241;53.510;10.170;2023-02-10T17:06:01;6.20;99.90
56336;DHT22;42241;53.510;10.170;2023-02-10T17:08:27;6.20;99.90
56336;DHT22;42241;53.510;10.170;2023-02-10T17:10:52;6.20;99.90
56336;DHT22;42241;53.510;10.170;2023-02-10T17:13:18;6.10;99.90
56336;DHT22;42241;53.510;10.170;2023-02-10T17:15:46;6.10;99.90
56336;DHT22;42241;53.510;10.170;2023-02-10T17:18:14;6.00;99.90
56336;DHT22;42241;53.510;10.170;2023-02-10T17:20:39;6.10;99.90
56336;DHT22;42241;53.510;10.170;2023-02-10T17:23:05;6.00;99.90
56336;DHT22;42241;53.510;10.170;2023-02-10T17:25:36;6.00;99.90
56336;DHT22;42241;53.510;10.170;2023-02-10T17:28:02;5.90;99.90
56336;DHT22;42241;53.510;10.170;2023-02-10T17:30:30;5.90;99.90
56336;DHT22;42241;53.510;10.170;2023-02-10T17:32:55;5.90;99.90
56336;DHT22;42241;53.510;10.170;2023-02-10T17:35:21;5.90;99.90
56336;DHT22;42241;53.510;10.170;2023-02-10T17:37:49;5.90;99.90
56336;DHT22;42241;53.510;10.170;2023-02-10T17:40:35;5.90;99.90
56336;DHT22;42241;53.510;10.170;2023-02-10T17:43:01;5.80;99.90
56336;DHT22;42241;53.510;10.170;2023-02-10T17:45:26;5.90;99.90
56336;DHT22;42241;53.510;10.170;2023-02-10T17:47:54;5.90;99.90
56336;DHT22;42241;53.510;10.170;2023-02-10T17:50:21;5.80;99.90
56336;DHT22;42241;53.510;10.170;2023-02-10T17:52:49;5.80;99.90